createdAt,value
2018-12-29T00:00:51.429Z,67.30
2018-12-29T00:03:21.053Z,67.20
2018-12-29T00:05:51.306Z,67.20
2018-12-29T00:08:20.942Z,67.30
2018-12-29T00:10:50.507Z,67.30
2018-12-29T00:13:20.111Z,67.30
2018-12-29T00:15:50.219Z,67.20
2018-12-29T00:18:19.916Z,67.20
2018-12-29T00:20:49.573Z,67.30
2018-12-29T00:23:19.286Z,67.10
2018-12-29T00:25:49.179Z,67.20
2018-12-29T00:28:18.858Z,67.30
2018-12-29T00:30:48.844Z,67.40
2018-12-29T00:33:18.438Z,67.50
2018-12-29T00:35:47.982Z,67.50
2018-12-29T00:38:17.615Z,67.40
2018-12-29T00:40:47.190Z,67.30
2018-12-29T00:43:16.786Z,67.50
2018-12-29T00:45:46.622Z,67.30
2018-12-29T00:48:16.096Z,67.30
2018-12-29T00:50:45.670Z,66.50
2018-12-29T00:53:15.286Z,67.30
2018-12-29T00:55:44.998Z,67.30
2018-12-29T00:58:14.539Z,67.30
2018-12-29T01:00:44.117Z,67.30
2018-12-29T01:03:13.650Z,67.30
2018-12-29T01:05:43.334Z,67.30
2018-12-29T01:08:12.962Z,66.80
2018-12-29T01:10:42.591Z,67.20
2018-12-29T01:13:12.161Z,67.20
2018-12-29T01:15:42.079Z,67.30
2018-12-29T01:18:11.563Z,67.20
2018-12-29T01:20:41.082Z,67.20
2018-12-29T01:23:10.561Z,67.30
2018-12-29T01:25:40.380Z,67.30
2018-12-29T01:28:09.984Z,67.30
2018-12-29T01:30:39.683Z,67.30
2018-12-29T01:33:09.234Z,67.50
2018-12-29T01:35:38.905Z,67.50
2018-12-29T01:38:08.439Z,67.40
2018-12-29T01:40:38.013Z,67.30
2018-12-29T01:43:07.647Z,67.40
2018-12-29T01:45:37.261Z,67.50
2018-12-29T01:48:06.790Z,67.30
2018-12-29T01:50:36.439Z,67.30
2018-12-29T01:53:05.976Z,67.30
2018-12-29T01:55:35.561Z,67.30
2018-12-29T01:58:05.100Z,67.40
2018-12-29T02:00:34.679Z,67.50
2018-12-29T02:03:04.274Z,67.50
2018-12-29T02:05:33.890Z,67.50
2018-12-29T02:08:03.483Z,67.50
2018-12-29T02:10:33.063Z,67.50
2018-12-29T02:13:02.599Z,67.50
2018-12-29T02:15:32.297Z,68.00
2018-12-29T02:18:01.842Z,67.90
2018-12-29T02:20:31.394Z,67.50
2018-12-29T02:23:01.090Z,67.50
2018-12-29T02:25:30.631Z,67.60
2018-12-29T02:28:00.283Z,67.50
2018-12-29T02:30:30.046Z,67.60
2018-12-29T02:32:59.748Z,67.50
2018-12-29T02:35:29.683Z,67.60
2018-12-29T02:37:59.354Z,67.60
2018-12-29T02:40:28.951Z,67.50
2018-12-29T02:42:58.652Z,67.70
2018-12-29T02:45:33.045Z,67.70
2018-12-29T02:47:59.415Z,67.70
2018-12-29T02:50:29.026Z,67.80
2018-12-29T02:52:58.543Z,67.80
2018-12-29T02:55:28.023Z,67.80
2018-12-29T02:57:57.646Z,67.90
2018-12-29T03:00:27.223Z,67.90
2018-12-29T03:02:56.811Z,68.10
2018-12-29T03:05:26.421Z,68.10
2018-12-29T03:07:56.418Z,68.10
2018-12-29T03:10:26.913Z,67.90
2018-12-29T03:12:56.884Z,68.20
2018-12-29T03:15:27.244Z,68.20
2018-12-29T03:17:57.216Z,68.20
2018-12-29T03:20:29.575Z,68.10
2018-12-29T03:22:59.241Z,68.20
2018-12-29T03:25:28.854Z,68.50
2018-12-29T03:27:58.670Z,68.50
2018-12-29T03:30:28.244Z,68.60
2018-12-29T03:32:58.239Z,68.50
2018-12-29T03:35:33.994Z,68.50
2018-12-29T03:38:03.508Z,68.50
2018-12-29T03:40:33.002Z,68.60
2018-12-29T03:43:02.516Z,68.70
2018-12-29T03:45:31.998Z,68.50
2018-12-29T03:48:01.509Z,68.70
2018-12-29T03:50:30.990Z,68.50
2018-12-29T03:53:00.497Z,68.50
2018-12-29T03:55:30.064Z,68.60
2018-12-29T03:57:59.621Z,68.50
2018-12-29T04:00:29.108Z,68.70
2018-12-29T04:02:58.645Z,68.60
2018-12-29T04:05:28.351Z,68.60
2018-12-29T04:07:57.865Z,68.50
2018-12-29T04:10:27.354Z,68.40
2018-12-29T04:12:59.565Z,68.40
2018-12-29T04:15:29.034Z,68.40
2018-12-29T04:17:58.551Z,68.30
2018-12-29T04:20:28.040Z,68.30
2018-12-29T04:22:57.676Z,68.30
2018-12-29T04:25:27.161Z,68.30
2018-12-29T04:27:56.682Z,68.30
2018-12-29T04:30:26.190Z,68.30
2018-12-29T04:32:55.710Z,68.30
2018-12-29T04:35:25.171Z,68.30
2018-12-29T04:37:54.676Z,68.30
2018-12-29T04:40:24.154Z,68.20
2018-12-29T04:42:53.685Z,68.20
2018-12-29T04:45:23.126Z,68.10
2018-12-29T04:47:52.605Z,68.20
2018-12-29T04:50:22.105Z,68.20
2018-12-29T04:52:51.566Z,68.20
2018-12-29T04:55:21.069Z,68.10
2018-12-29T04:57:50.529Z,68.20
2018-12-29T05:00:20.050Z,68.30
2018-12-29T05:02:49.523Z,68.40
2018-12-29T05:05:19.054Z,68.40
2018-12-29T05:07:48.529Z,68.30
2018-12-29T05:10:18.068Z,68.30
2018-12-29T05:12:47.506Z,68.50
2018-12-29T05:15:17.022Z,68.40
2018-12-29T05:17:46.514Z,68.50
2018-12-29T05:20:16.022Z,68.50
2018-12-29T05:22:45.498Z,68.80
2018-12-29T05:25:15.017Z,68.50
2018-12-29T05:27:44.499Z,68.80
2018-12-29T05:30:14.057Z,68.80
2018-12-29T05:32:43.578Z,68.80
2018-12-29T05:35:13.096Z,68.80
2018-12-29T05:37:42.566Z,68.90
2018-12-29T05:40:12.107Z,68.80
2018-12-29T05:42:41.582Z,68.80
2018-12-29T05:45:11.091Z,68.80
2018-12-29T05:47:40.567Z,68.80
2018-12-29T05:50:10.220Z,68.70
2018-12-29T05:52:39.760Z,68.70
2018-12-29T05:55:09.275Z,68.50
2018-12-29T05:57:38.740Z,68.50
2018-12-29T06:00:08.370Z,69.30
2018-12-29T06:02:37.855Z,68.50
2018-12-29T06:05:07.363Z,68.50
2018-12-29T06:07:36.850Z,68.50
2018-12-29T06:10:06.366Z,68.50
2018-12-29T06:12:35.833Z,68.50
2018-12-29T06:15:05.498Z,68.40
2018-12-29T06:17:34.968Z,68.50
2018-12-29T06:20:04.496Z,68.50
2018-12-29T06:22:34.018Z,68.50
2018-12-29T06:25:03.490Z,68.60
2018-12-29T06:27:33.014Z,68.50
2018-12-29T06:30:02.525Z,68.40
2018-12-29T06:32:32.035Z,68.50
2018-12-29T06:35:01.525Z,68.60
2018-12-29T06:37:31.037Z,68.70
2018-12-29T06:40:00.509Z,68.80
2018-12-29T06:42:30.024Z,68.80
2018-12-29T06:44:59.489Z,68.90
2018-12-29T06:47:29.005Z,69.00
2018-12-29T06:49:58.486Z,69.00
2018-12-29T06:52:27.990Z,69.00
2018-12-29T06:54:57.465Z,69.20
2018-12-29T06:57:26.974Z,69.20
2018-12-29T06:59:56.443Z,69.20
2018-12-29T07:02:25.954Z,69.20
2018-12-29T07:04:55.435Z,69.30
2018-12-29T07:07:26.539Z,69.40
2018-12-29T07:09:56.034Z,69.30
2018-12-29T07:12:25.538Z,69.40
2018-12-29T07:14:55.045Z,69.30
2018-12-29T07:17:24.538Z,69.30
2018-12-29T07:19:54.051Z,69.30
2018-12-29T07:22:23.526Z,69.30
2018-12-29T07:24:53.044Z,69.30
2018-12-29T07:27:22.522Z,69.30
2018-12-29T07:29:52.090Z,69.40
2018-12-29T07:32:21.557Z,70.20
2018-12-29T07:34:51.074Z,69.30
2018-12-29T07:37:20.562Z,69.30
2018-12-29T07:39:50.071Z,69.30
2018-12-29T07:42:19.533Z,69.30
2018-12-29T07:44:49.038Z,69.30
2018-12-29T07:47:18.518Z,69.30
2018-12-29T07:49:48.047Z,69.30
2018-12-29T07:52:17.554Z,69.30
2018-12-29T07:54:47.026Z,69.20
2018-12-29T07:57:16.506Z,69.30
2018-12-29T07:59:46.010Z,69.30
2018-12-29T08:02:15.544Z,69.50
2018-12-29T08:04:45.058Z,69.50
2018-12-29T08:07:14.611Z,69.50
2018-12-29T08:09:44.130Z,69.50
2018-12-29T08:12:13.618Z,69.50
2018-12-29T08:14:43.125Z,69.50
2018-12-29T08:17:12.605Z,69.70
2018-12-29T08:19:42.251Z,69.80
2018-12-29T08:22:11.757Z,69.80
2018-12-29T08:24:41.226Z,69.70
2018-12-29T08:27:10.702Z,69.70
2018-12-29T08:29:40.247Z,69.80
2018-12-29T08:32:09.729Z,69.90
2018-12-29T08:34:39.278Z,69.70
2018-12-29T08:37:08.914Z,69.80
2018-12-29T08:39:38.421Z,69.80
2018-12-29T08:42:07.995Z,69.80
2018-12-29T08:44:37.435Z,69.90
2018-12-29T08:47:06.901Z,69.90
2018-12-29T08:49:36.392Z,70.80
2018-12-29T08:52:05.854Z,69.80
2018-12-29T08:54:35.433Z,69.80
2018-12-29T08:57:04.925Z,70.00
2018-12-29T08:59:34.441Z,70.00
2018-12-29T09:02:03.939Z,69.80
2018-12-29T09:04:33.461Z,69.70
2018-12-29T09:07:02.934Z,69.70
2018-12-29T09:09:32.455Z,69.70
2018-12-29T09:12:01.913Z,69.80
2018-12-29T09:14:31.428Z,69.70
2018-12-29T09:17:00.886Z,69.70
2018-12-29T09:19:30.505Z,69.70
2018-12-29T09:21:59.977Z,69.70
2018-12-29T09:24:29.494Z,69.70
2018-12-29T09:26:58.962Z,69.70
2018-12-29T09:29:28.485Z,69.80
2018-12-29T09:31:57.943Z,69.90
2018-12-29T09:34:27.462Z,69.90
2018-12-29T09:36:56.936Z,70.00
2018-12-29T09:39:26.458Z,70.00
2018-12-29T09:41:55.966Z,70.00
2018-12-29T09:44:25.506Z,70.10
2018-12-29T09:46:55.067Z,70.10
2018-12-29T09:49:24.570Z,70.10
2018-12-29T09:51:54.027Z,70.20
2018-12-29T09:54:23.497Z,70.20
2018-12-29T09:56:53.089Z,71.00
2018-12-29T09:59:22.662Z,70.20
2018-12-29T10:01:55.530Z,70.30
2018-12-29T10:04:26.211Z,70.20
2018-12-29T10:06:55.722Z,70.30
2018-12-29T10:09:25.192Z,70.40
2018-12-29T10:11:55.100Z,70.40
2018-12-29T10:14:27.602Z,70.30
2018-12-29T10:16:58.522Z,70.20
2018-12-29T10:19:28.040Z,70.40
2018-12-29T10:21:57.648Z,70.20
2018-12-29T10:24:27.334Z,70.40
2018-12-29T10:26:56.915Z,70.40
2018-12-29T10:29:26.402Z,70.50
2018-12-29T10:31:55.929Z,70.40
2018-12-29T10:34:25.763Z,70.40
2018-12-29T10:36:55.343Z,71.60
2018-12-29T10:39:24.958Z,70.80
2018-12-29T10:41:55.956Z,70.40
2018-12-29T10:44:25.603Z,70.20
2018-12-29T10:46:55.319Z,71.00
2018-12-29T10:49:25.040Z,70.60
2018-12-29T10:51:54.804Z,70.70
2018-12-29T10:54:24.531Z,70.70
2018-12-29T10:56:54.299Z,70.60
2018-12-29T10:59:24.011Z,70.60
2018-12-29T11:01:53.703Z,70.60
2018-12-29T11:04:23.389Z,70.60
2018-12-29T11:06:53.103Z,70.50
2018-12-29T11:09:23.110Z,70.50
2018-12-29T11:11:52.905Z,70.50
2018-12-29T11:14:22.644Z,70.50
2018-12-29T11:16:53.531Z,70.60
2018-12-29T11:19:23.412Z,70.60
2018-12-29T11:21:53.234Z,70.70
2018-12-29T11:24:23.428Z,70.60
2018-12-29T11:26:56.490Z,70.50
2018-12-29T11:29:26.582Z,70.60
2018-12-29T11:31:56.381Z,70.60
2018-12-29T11:34:26.151Z,70.60
2018-12-29T11:36:55.927Z,70.60
2018-12-29T11:39:26.009Z,70.60
2018-12-29T11:41:55.717Z,70.60
2018-12-29T11:44:25.413Z,70.60
2018-12-29T11:46:55.130Z,70.60
2018-12-29T11:49:25.871Z,70.60
2018-12-29T11:51:55.656Z,70.70
2018-12-29T11:54:25.347Z,70.80
2018-12-29T11:56:55.437Z,70.60
2018-12-29T11:59:25.119Z,70.90
2018-12-29T12:01:54.867Z,70.70
2018-12-29T12:04:24.555Z,70.60
2018-12-29T12:06:54.308Z,70.70
2018-12-29T12:09:23.932Z,70.80
2018-12-29T12:11:54.694Z,70.80
2018-12-29T12:14:24.426Z,70.90
2018-12-29T12:16:54.185Z,70.80
2018-12-29T12:19:24.020Z,70.80
2018-12-29T12:21:53.778Z,70.70
2018-12-29T12:24:23.458Z,70.60
2018-12-29T12:26:53.232Z,70.70
2018-12-29T12:29:23.049Z,70.60
2018-12-29T12:31:52.752Z,70.80
2018-12-29T12:34:22.445Z,70.80
2018-12-29T12:36:52.199Z,70.80
2018-12-29T12:39:21.810Z,70.80
2018-12-29T12:41:51.547Z,70.70
2018-12-29T12:44:21.244Z,70.70
2018-12-29T12:46:51.014Z,70.80
2018-12-29T12:49:20.798Z,70.60
2018-12-29T12:51:50.536Z,70.60
2018-12-29T12:54:20.227Z,70.60
2018-12-29T12:56:49.947Z,70.60
2018-12-29T12:59:20.132Z,70.60
2018-12-29T13:01:50.349Z,70.70
2018-12-29T13:04:20.009Z,70.60
2018-12-29T13:06:49.735Z,70.60
2018-12-29T13:09:19.664Z,70.60
2018-12-29T13:11:49.588Z,70.70
2018-12-29T13:14:19.321Z,70.80
2018-12-29T13:16:49.061Z,70.80
2018-12-29T13:19:19.349Z,70.80
2018-12-29T13:21:49.094Z,70.80
2018-12-29T13:24:19.473Z,70.70
2018-12-29T13:26:49.865Z,71.70
2018-12-29T13:29:20.805Z,70.80
2018-12-29T13:31:50.505Z,70.80
2018-12-29T13:34:20.341Z,70.80
2018-12-29T13:36:49.996Z,70.70
2018-12-29T13:39:19.749Z,70.70
2018-12-29T13:41:49.877Z,70.80
2018-12-29T13:44:19.591Z,70.70
2018-12-29T13:46:49.304Z,70.80
2018-12-29T13:49:19.062Z,70.80
2018-12-29T13:51:49.047Z,70.80
2018-12-29T13:54:18.731Z,70.80
2018-12-29T13:56:48.361Z,70.80
2018-12-29T13:59:18.172Z,70.80
2018-12-29T14:01:47.880Z,70.80
2018-12-29T14:04:17.993Z,70.90
2018-12-29T14:06:47.722Z,71.00
2018-12-29T14:09:17.466Z,71.10
2018-12-29T14:11:47.164Z,71.10
2018-12-29T14:14:16.880Z,71.10
2018-12-29T14:16:46.548Z,71.20
2018-12-29T14:19:16.696Z,71.30
2018-12-29T14:21:46.614Z,71.20
2018-12-29T14:24:16.587Z,71.30
2018-12-29T14:26:47.015Z,71.80
2018-12-29T14:29:17.025Z,71.20
2018-12-29T14:31:46.940Z,71.30
2018-12-29T14:34:19.602Z,71.30
2018-12-29T14:36:49.526Z,71.30
2018-12-29T14:39:19.840Z,71.20
2018-12-29T14:41:52.747Z,71.20
2018-12-29T14:44:25.460Z,71.20
2018-12-29T14:46:58.255Z,71.10
2018-12-29T14:49:28.401Z,71.30
2018-12-29T14:52:01.348Z,72.10
2018-12-29T14:54:34.049Z,71.30
2018-12-29T14:57:03.916Z,71.30
2018-12-29T14:59:33.999Z,71.30
2018-12-29T15:02:06.754Z,71.50
2018-12-29T15:04:36.914Z,71.40
2018-12-29T15:07:09.926Z,71.30
2018-12-29T15:09:39.942Z,71.30
2018-12-29T15:12:09.984Z,71.30
2018-12-29T15:14:41.241Z,71.30
2018-12-29T15:17:14.477Z,71.30
2018-12-29T15:19:44.478Z,71.30
2018-12-29T15:22:14.517Z,71.30
2018-12-29T15:24:45.601Z,71.30
2018-12-29T15:27:17.001Z,71.40
2018-12-29T15:29:50.300Z,71.40
2018-12-29T15:32:20.369Z,71.50
2018-12-29T15:34:50.474Z,71.40
2018-12-29T15:37:20.420Z,71.30
2018-12-29T15:39:50.607Z,71.30
2018-12-29T15:42:21.095Z,71.40
2018-12-29T15:44:51.207Z,71.40
2018-12-29T15:47:21.153Z,71.40
2018-12-29T15:49:51.338Z,71.40
2018-12-29T15:52:21.132Z,71.30
2018-12-29T15:54:51.279Z,71.30
2018-12-29T15:59:34.304Z,71.30
2018-12-29T16:02:03.994Z,71.40
2018-12-29T16:04:33.732Z,71.40
2018-12-29T16:07:03.499Z,71.30
2018-12-29T16:09:34.410Z,71.50
2018-12-29T16:12:04.420Z,71.50
2018-12-29T16:14:35.527Z,71.70
2018-12-29T16:17:05.995Z,71.90
2018-12-29T16:19:36.651Z,71.90
2018-12-29T16:22:06.688Z,72.00
2018-12-29T16:24:36.884Z,71.90
2018-12-29T16:27:07.027Z,71.90
2018-12-29T16:29:38.058Z,71.90
2018-12-29T16:32:07.800Z,71.90
2018-12-29T16:34:37.565Z,71.90
2018-12-29T16:37:12.967Z,71.90
2018-12-29T16:39:42.923Z,71.90
2018-12-29T16:42:12.595Z,71.90
2018-12-29T16:44:42.348Z,71.90
2018-12-29T16:47:12.044Z,71.90
2018-12-29T16:49:42.180Z,71.90
2018-12-29T16:52:11.931Z,71.90
2018-12-29T16:54:41.706Z,71.90
2018-12-29T16:57:11.389Z,71.90
2018-12-29T16:59:41.117Z,71.90
2018-12-29T17:02:10.807Z,73.00
2018-12-29T17:04:40.537Z,71.90
2018-12-29T17:07:10.215Z,72.10
2018-12-29T17:09:39.967Z,72.90
2018-12-29T17:12:09.633Z,72.10
2018-12-29T17:14:39.437Z,72.10
2018-12-29T17:17:09.163Z,72.10
2018-12-29T17:19:39.249Z,72.20
2018-12-29T17:22:08.939Z,72.10
2018-12-29T17:24:38.675Z,72.10
2018-12-29T17:27:08.581Z,72.20
2018-12-29T17:29:38.325Z,72.20
2018-12-29T17:32:08.046Z,72.20
2018-12-29T17:34:37.720Z,72.10
2018-12-29T17:37:07.464Z,72.10
2018-12-29T17:39:37.566Z,72.10
2018-12-29T17:42:07.317Z,72.10
2018-12-29T17:44:37.024Z,72.10
2018-12-29T17:47:06.865Z,72.10
2018-12-29T17:49:36.595Z,72.10
2018-12-29T17:52:06.596Z,72.00
2018-12-29T17:54:36.269Z,72.20
2018-12-29T17:57:05.990Z,72.00
2018-12-29T17:59:35.686Z,72.10
2018-12-29T18:02:05.435Z,72.00
2018-12-29T18:04:35.618Z,72.00
2018-12-29T18:07:05.746Z,72.00
2018-12-29T18:09:35.429Z,72.20
2018-12-29T18:12:05.371Z,72.20
2018-12-29T18:14:35.076Z,72.20
2018-12-29T18:17:04.808Z,72.20
2018-12-29T18:19:34.535Z,72.00
2018-12-29T18:22:04.676Z,72.10
2018-12-29T18:24:34.378Z,72.10
2018-12-29T18:27:04.121Z,72.00
2018-12-29T18:29:33.849Z,72.00
2018-12-29T18:32:03.568Z,72.00
2018-12-29T18:34:33.691Z,72.00
2018-12-29T18:37:03.562Z,71.90
2018-12-29T18:39:33.275Z,71.90
2018-12-29T18:42:03.041Z,72.00
2018-12-29T18:44:32.733Z,71.90
2018-12-29T18:47:02.473Z,72.10
2018-12-29T18:49:38.421Z,72.00
2018-12-29T18:52:03.915Z,72.00
2018-12-29T18:54:33.653Z,71.90
2018-12-29T18:57:03.380Z,71.90
2018-12-29T18:59:33.078Z,72.00
2018-12-29T19:02:02.846Z,71.90
2018-12-29T19:04:32.555Z,72.00
2018-12-29T19:07:02.298Z,71.90
2018-12-29T19:09:31.992Z,71.80
2018-12-29T19:12:01.715Z,71.80
2018-12-29T19:14:31.446Z,71.90
2018-12-29T19:17:01.197Z,72.50
2018-12-29T19:19:31.306Z,72.00
2018-12-29T19:22:01.022Z,72.00
2018-12-29T19:24:30.736Z,72.00
2018-12-29T19:27:00.480Z,72.00
2018-12-29T19:29:30.274Z,72.00
2018-12-29T19:32:00.362Z,72.00
2018-12-29T19:34:30.526Z,72.00
2018-12-29T19:37:00.705Z,71.90
2018-12-29T19:39:30.969Z,72.00
2018-12-29T19:42:00.710Z,72.00
2018-12-29T19:44:30.866Z,72.10
2018-12-29T19:47:00.606Z,72.10
2018-12-29T19:49:30.691Z,72.10
2018-12-29T19:52:00.457Z,72.10
2018-12-29T19:54:30.541Z,72.20
2018-12-29T19:57:00.713Z,72.20
2018-12-29T19:59:30.643Z,72.20
2018-12-29T20:02:00.674Z,72.20
2018-12-29T20:04:30.353Z,72.20
2018-12-29T20:07:00.508Z,72.10
2018-12-29T20:09:30.330Z,72.00
2018-12-29T20:12:00.654Z,72.00
2018-12-29T20:14:30.520Z,72.10
2018-12-29T20:17:00.581Z,72.10
2018-12-29T20:19:30.357Z,72.10
2018-12-29T20:22:00.082Z,72.10
2018-12-29T20:24:29.819Z,72.10
2018-12-29T20:26:59.599Z,72.00
2018-12-29T20:29:30.835Z,72.00
2018-12-29T20:32:00.746Z,72.30
2018-12-29T20:34:30.837Z,72.00
2018-12-29T20:37:00.562Z,72.00
2018-12-29T20:39:30.275Z,72.00
2018-12-29T20:42:00.000Z,72.10
2018-12-29T20:44:29.921Z,72.10
2018-12-29T20:47:00.013Z,72.20
2018-12-29T20:49:29.788Z,72.00
2018-12-29T20:52:00.157Z,72.20
2018-12-29T20:54:30.129Z,72.20
2018-12-29T20:56:59.900Z,72.20
2018-12-29T20:59:29.834Z,72.30
2018-12-29T21:01:59.698Z,72.30
2018-12-29T21:04:29.466Z,72.40
2018-12-29T21:06:59.174Z,72.30
2018-12-29T21:09:29.200Z,72.60
2018-12-29T21:11:59.076Z,72.50
2018-12-29T21:14:28.852Z,72.50
2018-12-29T21:16:58.562Z,72.50
2018-12-29T21:19:28.460Z,72.50
2018-12-29T21:21:58.161Z,72.50
2018-12-29T21:24:28.097Z,72.60
2018-12-29T21:26:57.774Z,72.50
2018-12-29T21:29:27.578Z,72.70
2018-12-29T21:31:57.332Z,72.70
2018-12-29T21:34:27.071Z,72.60
2018-12-29T21:36:56.736Z,72.70
2018-12-29T21:39:26.429Z,72.70
2018-12-29T21:41:56.157Z,72.70
2018-12-29T21:44:25.880Z,72.70
2018-12-29T21:46:55.548Z,72.70
2018-12-29T21:49:25.270Z,72.70
2018-12-29T21:51:54.948Z,72.70
2018-12-29T21:54:24.674Z,72.70
2018-12-29T21:56:54.346Z,72.80
2018-12-29T21:59:24.112Z,72.70
2018-12-29T22:01:53.820Z,72.90
2018-12-29T22:04:23.537Z,72.90
2018-12-29T22:06:53.210Z,72.70
2018-12-29T22:09:22.896Z,72.90
2018-12-29T22:11:52.560Z,72.90
2018-12-29T22:14:22.249Z,72.90
2018-12-29T22:16:51.919Z,72.90
2018-12-29T22:19:21.582Z,72.90
2018-12-29T22:21:51.278Z,72.90
2018-12-29T22:24:20.986Z,73.00
2018-12-29T22:26:50.649Z,72.90
2018-12-29T22:29:20.545Z,72.90
2018-12-29T22:31:50.515Z,72.90
2018-12-29T22:34:20.233Z,72.90
2018-12-29T22:36:49.896Z,72.90
2018-12-29T22:39:19.620Z,72.90
2018-12-29T22:41:49.433Z,72.90
2018-12-29T22:44:19.312Z,73.10
2018-12-29T22:46:49.005Z,72.90
2018-12-29T22:49:18.948Z,72.90
2018-12-29T22:51:48.740Z,72.90
2018-12-29T22:54:18.634Z,73.00
2018-12-29T22:56:48.364Z,73.00
2018-12-29T22:59:18.166Z,72.90
2018-12-29T23:01:47.947Z,73.10
2018-12-29T23:04:17.785Z,73.10
2018-12-29T23:06:47.524Z,73.00
2018-12-29T23:09:17.895Z,73.20
2018-12-29T23:11:47.823Z,73.10
2018-12-29T23:14:17.628Z,73.10
2018-12-29T23:16:47.574Z,73.30
2018-12-29T23:19:17.397Z,73.30
2018-12-29T23:21:47.072Z,73.50
2018-12-29T23:24:17.169Z,73.30
2018-12-29T23:26:46.980Z,73.40
2018-12-29T23:29:16.989Z,73.30
2018-12-29T23:31:46.766Z,73.30
2018-12-29T23:34:16.718Z,73.30
2018-12-29T23:36:46.493Z,73.40
2018-12-29T23:39:16.302Z,73.30
2018-12-29T23:41:46.486Z,73.50
2018-12-29T23:44:16.198Z,73.50
2018-12-29T23:46:45.992Z,73.50
2018-12-29T23:49:15.787Z,73.50
2018-12-29T23:51:46.072Z,73.40
2018-12-29T23:54:15.806Z,73.50
2018-12-29T23:56:45.941Z,73.60
2018-12-29T23:59:15.664Z,73.70
